sensor_id;sensor_type;location;lat;lon;timestamp;pressure;altitude;pressure_sealevel;temperature;humidity
27643;BME280;15053;48.618;10.024;2023-02-26T00:02:13;93529.97;;;-0.20;76.42
27643;BME280;15053;48.618;10.024;2023-02-26T00:04:40;93527.63;;;-0.21;77.01
27643;BME280;15053;48.618;10.024;2023-02-26T00:07:07;93529.97;;;-0.20;76.81
27643;BME280;15053;48.618;10.024;2023-02-26T00:09:34;93531.38;;;-0.29;76.96
27643;BME280;15053;48.618;10.024;2023-02-26T00:12:00;93531.84;;;-0.32;76.62
27643;BME280;15053;48.618;10.024;2023-02-26T00:14:27;93543.41;;;-0.29;76.65
27643;BME280;15053;48.618;10.024;2023-02-26T00:17:06;93541.91;;;-0.25;77.03
27643;BME280;15053;48.618;10.024;2023-02-26T00:19:39;93534.94;;;-0.30;77.06
27643;BME280;15053;48.618;10.024;2023-02-26T00:22:06;93536.50;;;-0.29;76.24
27643;BME280;15053;48.618;10.024;2023-02-26T00:24:32;93541.88;;;-0.30;76.83
27643;BME280;15053;48.618;10.024;2023-02-26T00:26:59;93545.66;;;-0.33;76.69
27643;BME280;15053;48.618;10.024;2023-02-26T00:29:26;93543.66;;;-0.31;76.79
27643;BME280;15053;48.618;10.024;2023-02-26T00:31:52;93542.16;;;-0.27;76.99
27643;BME280;15053;48.618;10.024;2023-02-26T00:34:19;93552.16;;;-0.25;76.47
27643;BME280;15053;48.618;10.024;2023-02-26T00:36:54;93548.28;;;-0.28;76.70
27643;BME280;15053;48.618;10.024;2023-02-26T00:39:43;93551.91;;;-0.24;77.87
27643;BME280;15053;48.618;10.024;2023-02-26T00:42:15;93557.84;;;-0.18;76.93
27643;BME280;15053;48.618;10.024;2023-02-26T00:44:42;93556.91;;;-0.12;77.08
27643;BME280;15053;48.618;10.024;2023-02-26T00:52:56;93545.91;;;-0.13;78.19
27643;BME280;15053;48.618;10.024;2023-02-26T00:55:27;93543.88;;;-0.11;78.20
27643;BME280;15053;48.618;10.024;2023-02-26T00:57:54;93543.03;;;-0.16;78.78
27643;BME280;15053;48.618;10.024;2023-02-26T01:00:22;93545.91;;;-0.13;79.13
27643;BME280;15053;48.618;10.024;2023-02-26T01:02:49;93549.97;;;-0.17;79.24
27643;BME280;15053;48.618;10.024;2023-02-26T01:05:16;93544.22;;;-0.24;78.39
27643;BME280;15053;48.618;10.024;2023-02-26T01:07:50;93540.63;;;-0.28;79.86
27643;BME280;15053;48.618;10.024;2023-02-26T01:10:20;93537.75;;;-0.31;78.92
27643;BME280;15053;48.618;10.024;2023-02-26T01:12:46;93538.22;;;-0.34;79.20
27643;BME280;15053;48.618;10.024;2023-02-26T01:15:13;93545.53;;;-0.43;79.35
27643;BME280;15053;48.618;10.024;2023-02-26T01:17:49;93541.97;;;-0.42;79.77
27643;BME280;15053;48.618;10.024;2023-02-26T01:20:20;93544.16;;;-0.50;78.50
27643;BME280;15053;48.618;10.024;2023-02-26T01:23:06;93545.41;;;-0.53;79.48
27643;BME280;15053;48.618;10.024;2023-02-26T01:25:38;93542.00;;;-0.58;79.28
27643;BME280;15053;48.618;10.024;2023-02-26T01:28:07;93548.66;;;-0.57;79.96
27643;BME280;15053;48.618;10.024;2023-02-26T01:30:33;93541.22;;;-0.59;79.15
27643;BME280;15053;48.618;10.024;2023-02-26T01:35:51;93544.56;;;-0.58;78.90
27643;BME280;15053;48.618;10.024;2023-02-26T01:42:05;93550.91;;;-0.61;80.20
27643;BME280;15053;48.618;10.024;2023-02-26T01:44:25;93550.38;;;-0.63;79.91
27643;BME280;15053;48.618;10.024;2023-02-26T01:49:44;93546.22;;;-0.69;79.24
27643;BME280;15053;48.618;10.024;2023-02-26T01:55:16;93564.78;;;-0.74;78.96
27643;BME280;15053;48.618;10.024;2023-02-26T01:57:46;93557.38;;;-0.75;79.23
27643;BME280;15053;48.618;10.024;2023-02-26T02:00:14;93558.59;;;-0.78;78.69
27643;BME280;15053;48.618;10.024;2023-02-26T02:02:41;93558.44;;;-0.88;78.62
27643;BME280;15053;48.618;10.024;2023-02-26T02:05:33;93561.50;;;-0.91;77.87
27643;BME280;15053;48.618;10.024;2023-02-26T02:08:01;93562.16;;;-0.95;77.81
27643;BME280;15053;48.618;10.024;2023-02-26T02:10:28;93556.59;;;-0.92;78.80
27643;BME280;15053;48.618;10.024;2023-02-26T02:13:04;93549.41;;;-0.95;78.44
27643;BME280;15053;48.618;10.024;2023-02-26T02:15:41;93567.13;;;-0.89;78.27
27643;BME280;15053;48.618;10.024;2023-02-26T02:18:34;93562.34;;;-0.85;77.89
27643;BME280;15053;48.618;10.024;2023-02-26T02:21:26;93563.81;;;-0.89;77.66
27643;BME280;15053;48.618;10.024;2023-02-26T02:24:06;93562.94;;;-0.95;77.72
27643;BME280;15053;48.618;10.024;2023-02-26T02:29:30;93572.84;;;-0.98;77.82
27643;BME280;15053;48.618;10.024;2023-02-26T02:32:05;93577.50;;;-0.95;77.27
27643;BME280;15053;48.618;10.024;2023-02-26T02:34:59;93577.03;;;-0.92;77.71
27643;BME280;15053;48.618;10.024;2023-02-26T02:40:08;93579.06;;;-0.94;76.85
27643;BME280;15053;48.618;10.024;2023-02-26T02:42:43;93568.06;;;-0.95;76.76
27643;BME280;15053;48.618;10.024;2023-02-26T02:45:27;93582.94;;;-0.92;76.47
27643;BME280;15053;48.618;10.024;2023-02-26T02:48:00;93580.06;;;-0.95;76.62
27643;BME280;15053;48.618;10.024;2023-02-26T02:50:34;93581.84;;;-0.96;76.40
27643;BME280;15053;48.618;10.024;2023-02-26T02:53:11;93582.22;;;-1.04;75.91
27643;BME280;15053;48.618;10.024;2023-02-26T02:55:49;93586.25;;;-1.08;76.44
27643;BME280;15053;48.618;10.024;2023-02-26T02:58:22;93583.38;;;-1.11;76.86
27643;BME280;15053;48.618;10.024;2023-02-26T03:00:54;93572.16;;;-1.10;76.04
27643;BME280;15053;48.618;10.024;2023-02-26T03:03:33;93582.94;;;-1.08;76.14
27643;BME280;15053;48.618;10.024;2023-02-26T03:06:02;93583.38;;;-1.11;76.28
27643;BME280;15053;48.618;10.024;2023-02-26T03:08:33;93593.59;;;-1.11;76.22
27643;BME280;15053;48.618;10.024;2023-02-26T03:11:01;93588.81;;;-1.08;76.59
27643;BME280;15053;48.618;10.024;2023-02-26T03:13:28;93597.78;;;-1.05;76.82
27643;BME280;15053;48.618;10.024;2023-02-26T03:19:17;93602.44;;;-1.02;76.00
27643;BME280;15053;48.618;10.024;2023-02-26T03:22:08;93603.75;;;-1.00;75.87
27643;BME280;15053;48.618;10.024;2023-02-26T03:25:03;93601.19;;;-1.00;76.24
27643;BME280;15053;48.618;10.024;2023-02-26T03:30:25;93602.81;;;-1.10;76.27
27643;BME280;15053;48.618;10.024;2023-02-26T03:33:07;93607.53;;;-1.19;76.01
27643;BME280;15053;48.618;10.024;2023-02-26T03:35:56;93608.56;;;-1.32;76.15
27643;BME280;15053;48.618;10.024;2023-02-26T03:38:38;93611.81;;;-1.36;77.12
27643;BME280;15053;48.618;10.024;2023-02-26T03:41:16;93606.41;;;-1.40;77.25
27643;BME280;15053;48.618;10.024;2023-02-26T03:43:49;93617.63;;;-1.41;77.32
27643;BME280;15053;48.618;10.024;2023-02-26T03:46:22;93618.00;;;-1.49;77.03
27643;BME280;15053;48.618;10.024;2023-02-26T03:48:52;93619.91;;;-1.56;77.41
27643;BME280;15053;48.618;10.024;2023-02-26T03:51:23;93619.59;;;-1.59;77.26
27643;BME280;15053;48.618;10.024;2023-02-26T03:54:27;93615.16;;;-1.64;77.55
27643;BME280;15053;48.618;10.024;2023-02-26T03:57:16;93615.50;;;-1.60;77.34
27643;BME280;15053;48.618;10.024;2023-02-26T03:59:57;93623.94;;;-1.60;77.10
27643;BME280;15053;48.618;10.024;2023-02-26T04:03:00;93625.69;;;-1.60;77.16
27643;BME280;15053;48.618;10.024;2023-02-26T04:05:32;93627.47;;;-1.61;76.58
27643;BME280;15053;48.618;10.024;2023-02-26T04:08:01;93631.25;;;-1.63;76.41
27643;BME280;15053;48.618;10.024;2023-02-26T04:10:55;93630.38;;;-1.69;75.84
27643;BME280;15053;48.618;10.024;2023-02-26T04:13:23;93633.28;;;-1.77;75.61
27643;BME280;15053;48.618;10.024;2023-02-26T04:15:50;93647.28;;;-1.80;74.95
27643;BME280;15053;48.618;10.024;2023-02-26T04:18:16;93637.53;;;-1.83;75.25
27643;BME280;15053;48.618;10.024;2023-02-26T04:20:43;93642.63;;;-1.83;74.58
27643;BME280;15053;48.618;10.024;2023-02-26T04:23:09;93644.31;;;-1.88;74.30
27643;BME280;15053;48.618;10.024;2023-02-26T04:25:36;93646.63;;;-1.87;74.69
27643;BME280;15053;48.618;10.024;2023-02-26T04:28:03;93648.88;;;-1.90;74.01
27643;BME280;15053;48.618;10.024;2023-02-26T04:30:30;93648.63;;;-1.89;73.17
27643;BME280;15053;48.618;10.024;2023-02-26T04:33:00;93647.75;;;-1.94;73.54
27643;BME280;15053;48.618;10.024;2023-02-26T04:35:26;93646.88;;;-2.00;73.22
27643;BME280;15053;48.618;10.024;2023-02-26T04:37:55;93651.19;;;-2.00;73.17
27643;BME280;15053;48.618;10.024;2023-02-26T04:40:22;93651.78;;;-2.10;73.51
27643;BME280;15053;48.618;10.024;2023-02-26T04:42:51;93656.31;;;-2.12;73.73
27643;BME280;15053;48.618;10.024;2023-02-26T04:45:22;93659.63;;;-2.11;73.62
27643;BME280;15053;48.618;10.024;2023-02-26T04:47:48;93663.19;;;-2.12;73.73
27643;BME280;15053;48.618;10.024;2023-02-26T04:50:15;93665.19;;;-2.14;73.84
27643;BME280;15053;48.618;10.024;2023-02-26T04:52:45;93671.50;;;-2.17;74.36
27643;BME280;15053;48.618;10.024;2023-02-26T04:55:11;93674.28;;;-2.18;74.25
27643;BME280;15053;48.618;10.024;2023-02-26T04:57:38;93671.97;;;-2.20;74.41
27643;BME280;15053;48.618;10.024;2023-02-26T05:00:05;93670.94;;;-2.19;74.52
27643;BME280;15053;48.618;10.024;2023-02-26T05:02:36;93682.91;;;-2.19;74.48
27643;BME280;15053;48.618;10.024;2023-02-26T05:05:03;93687.91;;;-2.13;74.82
27643;BME280;15053;48.618;10.024;2023-02-26T05:07:30;93684.59;;;-2.13;74.81
27643;BME280;15053;48.618;10.024;2023-02-26T05:09:56;93679.28;;;-2.12;74.33
27643;BME280;15053;48.618;10.024;2023-02-26T05:12:23;93685.13;;;-2.11;74.72
27643;BME280;15053;48.618;10.024;2023-02-26T05:14:49;93681.03;;;-2.12;74.10
27643;BME280;15053;48.618;10.024;2023-02-26T05:17:16;93685.25;;;-2.18;74.43
27643;BME280;15053;48.618;10.024;2023-02-26T05:19:42;93693.25;;;-2.14;74.87
27643;BME280;15053;48.618;10.024;2023-02-26T05:22:09;93691.69;;;-2.15;74.57
27643;BME280;15053;48.618;10.024;2023-02-26T05:24:35;93692.69;;;-2.16;74.42
27643;BME280;15053;48.618;10.024;2023-02-26T05:27:02;93698.34;;;-2.14;74.42
27643;BME280;15053;48.618;10.024;2023-02-26T05:29:30;93697.34;;;-2.13;74.94
27643;BME280;15053;48.618;10.024;2023-02-26T05:31:58;93700.13;;;-2.15;74.37
27643;BME280;15053;48.618;10.024;2023-02-26T05:34:25;93714.63;;;-2.15;74.80
27643;BME280;15053;48.618;10.024;2023-02-26T05:36:51;93703.22;;;-2.13;74.65
27643;BME280;15053;48.618;10.024;2023-02-26T05:39:18;93700.44;;;-2.11;74.60
27643;BME280;15053;48.618;10.024;2023-02-26T05:41:44;93699.53;;;-2.05;74.84
27643;BME280;15053;48.618;10.024;2023-02-26T05:44:12;93710.28;;;-2.03;75.11
27643;BME280;15053;48.618;10.024;2023-02-26T05:46:39;93705.63;;;-1.95;75.23
27643;BME280;15053;48.618;10.024;2023-02-26T05:49:05;93715.50;;;-1.87;74.80
27643;BME280;15053;48.618;10.024;2023-02-26T05:51:31;93712.94;;;-1.87;75.35
27643;BME280;15053;48.618;10.024;2023-02-26T05:53:58;93712.75;;;-1.85;75.08
27643;BME280;15053;48.618;10.024;2023-02-26T05:56:24;93720.38;;;-1.85;75.28
27643;BME280;15053;48.618;10.024;2023-02-26T05:58:51;93730.94;;;-1.82;75.13
27643;BME280;15053;48.618;10.024;2023-02-26T06:01:18;93727.69;;;-1.77;74.77
27643;BME280;15053;48.618;10.024;2023-02-26T06:03:44;93734.66;;;-1.72;75.49
27643;BME280;15053;48.618;10.024;2023-02-26T06:06:12;93727.13;;;-1.67;75.66
27643;BME280;15053;48.618;10.024;2023-02-26T06:08:41;93732.00;;;-1.66;75.36
27643;BME280;15053;48.618;10.024;2023-02-26T06:11:07;93737.31;;;-1.67;75.44
27643;BME280;15053;48.618;10.024;2023-02-26T06:13:34;93735.78;;;-1.68;75.69
27643;BME280;15053;48.618;10.024;2023-02-26T06:16:01;93740.44;;;-1.65;75.31
27643;BME280;15053;48.618;10.024;2023-02-26T06:18:27;93745.09;;;-1.62;76.03
27643;BME280;15053;48.618;10.024;2023-02-26T06:20:54;93754.41;;;-1.56;75.99
27643;BME280;15053;48.618;10.024;2023-02-26T06:23:20;93756.75;;;-1.55;75.39
27643;BME280;15053;48.618;10.024;2023-02-26T06:25:49;93750.84;;;-1.55;75.89
27643;BME280;15053;48.618;10.024;2023-02-26T06:28:16;93765.28;;;-1.49;75.71
27643;BME280;15053;48.618;10.024;2023-02-26T06:30:43;93757.38;;;-1.48;75.41
27643;BME280;15053;48.618;10.024;2023-02-26T06:33:10;93755.50;;;-1.52;75.82
27643;BME280;15053;48.618;10.024;2023-02-26T06:35:37;93768.47;;;-1.42;75.51
27643;BME280;15053;48.618;10.024;2023-02-26T06:38:03;93770.81;;;-1.41;75.32
27643;BME280;15053;48.618;10.024;2023-02-26T06:40:30;93778.13;;;-1.44;74.54
27643;BME280;15053;48.618;10.024;2023-02-26T06:42:56;93776.91;;;-1.42;75.60
27643;BME280;15053;48.618;10.024;2023-02-26T06:45:23;93769.78;;;-1.40;75.11
27643;BME280;15053;48.618;10.024;2023-02-26T06:47:50;93778.13;;;-1.44;74.48
27643;BME280;15053;48.618;10.024;2023-02-26T06:50:17;93773.81;;;-1.44;75.24
27643;BME280;15053;48.618;10.024;2023-02-26T06:52:43;93769.78;;;-1.40;75.43
27643;BME280;15053;48.618;10.024;2023-02-26T06:55:10;93778.47;;;-1.41;74.59
27643;BME280;15053;48.618;10.024;2023-02-26T06:57:37;93782.56;;;-1.40;74.64
27643;BME280;15053;48.618;10.024;2023-02-26T07:00:04;93789.56;;;-1.35;74.44
27643;BME280;15053;48.618;10.024;2023-02-26T07:02:31;93791.78;;;-1.39;74.83
27643;BME280;15053;48.618;10.024;2023-02-26T07:04:58;93795.75;;;-1.31;75.38
27643;BME280;15053;48.618;10.024;2023-02-26T07:07:25;93801.66;;;-1.31;74.96
27643;BME280;15053;48.618;10.024;2023-02-26T07:09:51;93804.84;;;-1.24;75.24
27643;BME280;15053;48.618;10.024;2023-02-26T07:12:17;93808.84;;;-1.16;74.51
27643;BME280;15053;48.618;10.024;2023-02-26T07:14:44;93805.91;;;-0.96;74.67
27643;BME280;15053;48.618;10.024;2023-02-26T07:17:11;93799.97;;;-0.57;75.01
27643;BME280;15053;48.618;10.024;2023-02-26T07:19:46;93800.50;;;-0.27;74.44
27643;BME280;15053;48.618;10.024;2023-02-26T07:22:13;93799.72;;;-0.11;74.27
27643;BME280;15053;48.618;10.024;2023-02-26T07:24:41;93816.56;;;0.02;73.58
27643;BME280;15053;48.618;10.024;2023-02-26T07:27:08;93809.81;;;-0.04;73.28
27643;BME280;15053;48.618;10.024;2023-02-26T07:29:35;93814.47;;;-0.18;73.99
27643;BME280;15053;48.618;10.024;2023-02-26T07:32:02;93808.25;;;-0.22;73.13
27643;BME280;15053;48.618;10.024;2023-02-26T07:34:29;93821.13;;;-0.33;73.11
27643;BME280;15053;48.618;10.024;2023-02-26T07:36:55;93820.13;;;-0.44;73.51
27643;BME280;15053;48.618;10.024;2023-02-26T07:39:25;93824.63;;;-0.51;73.50
27643;BME280;15053;48.618;10.024;2023-02-26T07:41:52;93822.00;;;-0.56;74.19
27643;BME280;15053;48.618;10.024;2023-02-26T07:44:20;93825.81;;;-0.42;73.63
27643;BME280;15053;48.618;10.024;2023-02-26T07:46:47;93830.09;;;-0.31;73.71
27643;BME280;15053;48.618;10.024;2023-02-26T07:49:13;93819.50;;;-0.23;73.75
27643;BME280;15053;48.618;10.024;2023-02-26T07:51:39;93820.66;;;-0.14;72.55
27643;BME280;15053;48.618;10.024;2023-02-26T07:54:11;93819.59;;;-0.01;72.74
27643;BME280;15053;48.618;10.024;2023-02-26T07:56:39;93823.63;;;0.12;72.01
27643;BME280;15053;48.618;10.024;2023-02-26T07:59:06;93828.81;;;0.17;71.06
27643;BME280;15053;48.618;10.024;2023-02-26T08:01:33;93825.97;;;0.13;71.05
27643;BME280;15053;48.618;10.024;2023-02-26T08:03:59;93826.56;;;0.04;70.52
27643;BME280;15053;48.618;10.024;2023-02-26T08:06:26;93831.28;;;-0.05;70.45
27643;BME280;15053;48.618;10.024;2023-02-26T08:08:53;93833.94;;;0.00;70.79
27643;BME280;15053;48.618;10.024;2023-02-26T08:11:20;93833.47;;;0.03;71.05
27643;BME280;15053;48.618;10.024;2023-02-26T08:13:46;93839.53;;;-0.03;69.46
27643;BME280;15053;48.618;10.024;2023-02-26T08:16:13;93842.22;;;-0.10;70.55
27643;BME280;15053;48.618;10.024;2023-02-26T08:18:39;93843.31;;;-0.06;69.84
27643;BME280;15053;48.618;10.024;2023-02-26T08:21:05;93841.75;;;-0.07;69.98
27643;BME280;15053;48.618;10.024;2023-02-26T08:23:32;93842.81;;;-0.19;69.22
27643;BME280;15053;48.618;10.024;2023-02-26T08:26:00;93845.69;;;-0.16;69.71
27643;BME280;15053;48.618;10.024;2023-02-26T08:28:27;93840.66;;;-0.11;69.63
27643;BME280;15053;48.618;10.024;2023-02-26T08:30:54;93839.19;;;-0.07;69.82
27643;BME280;15053;48.618;10.024;2023-02-26T08:33:21;93840.19;;;-0.08;68.87
27643;BME280;15053;48.618;10.024;2023-02-26T08:35:51;93839.59;;;-0.15;69.57
27643;BME280;15053;48.618;10.024;2023-02-26T08:38:19;93844.69;;;-0.15;69.79
27643;BME280;15053;48.618;10.024;2023-02-26T08:40:49;93854.94;;;-0.15;68.87
27643;BME280;15053;48.618;10.024;2023-02-26T08:43:15;93850.34;;;-0.13;69.18
27643;BME280;15053;48.618;10.024;2023-02-26T08:45:42;93857.81;;;0.06;69.59
27643;BME280;15053;48.618;10.024;2023-02-26T08:48:08;93860.47;;;0.11;69.18
27643;BME280;15053;48.618;10.024;2023-02-26T08:50:36;93859.84;;;0.37;67.84
27643;BME280;15053;48.618;10.024;2023-02-26T08:53:02;93878.84;;;0.74;68.07
27643;BME280;15053;48.618;10.024;2023-02-26T08:55:29;93878.16;;;1.00;67.81
27643;BME280;15053;48.618;10.024;2023-02-26T08:57:55;93881.09;;;1.09;66.59
27643;BME280;15053;48.618;10.024;2023-02-26T09:00:22;93887.59;;;1.16;66.11
27643;BME280;15053;48.618;10.024;2023-02-26T09:02:49;93884.72;;;1.13;65.38
27643;BME280;15053;48.618;10.024;2023-02-26T09:05:16;93889.22;;;1.23;66.61
27643;BME280;15053;48.618;10.024;2023-02-26T09:07:43;93883.72;;;1.14;65.75
27643;BME280;15053;48.618;10.024;2023-02-26T09:10:10;93896.06;;;1.17;65.83
27643;BME280;15053;48.618;10.024;2023-02-26T09:12:37;93900.00;;;1.25;66.03
27643;BME280;15053;48.618;10.024;2023-02-26T09:15:05;93895.13;;;1.45;66.08
27643;BME280;15053;48.618;10.024;2023-02-26T09:17:32;93902.97;;;1.60;65.50
27643;BME280;15053;48.618;10.024;2023-02-26T09:19:59;93896.91;;;1.66;64.93
27643;BME280;15053;48.618;10.024;2023-02-26T09:22:25;93898.50;;;1.72;64.97
27643;BME280;15053;48.618;10.024;2023-02-26T09:24:52;93901.72;;;1.62;64.46
27643;BME280;15053;48.618;10.024;2023-02-26T09:27:18;93909.16;;;1.59;65.11
27643;BME280;15053;48.618;10.024;2023-02-26T09:29:45;93913.56;;;1.42;64.83
27643;BME280;15053;48.618;10.024;2023-02-26T09:32:11;93914.81;;;1.17;64.28
27643;BME280;15053;48.618;10.024;2023-02-26T09:34:38;93923.00;;;0.98;65.06
27643;BME280;15053;48.618;10.024;2023-02-26T09:37:06;93917.94;;;0.86;65.85
27643;BME280;15053;48.618;10.024;2023-02-26T09:39:33;93924.19;;;0.74;66.36
27643;BME280;15053;48.618;10.024;2023-02-26T09:45:00;93932.56;;;0.69;66.71
27643;BME280;15053;48.618;10.024;2023-02-26T09:47:54;93923.88;;;0.70;67.65
27643;BME280;15053;48.618;10.024;2023-02-26T09:50:27;93933.81;;;0.67;67.28
27643;BME280;15053;48.618;10.024;2023-02-26T09:53:26;93938.16;;;0.66;67.09
27643;BME280;15053;48.618;10.024;2023-02-26T09:55:53;93931.16;;;0.62;67.96
27643;BME280;15053;48.618;10.024;2023-02-26T09:58:31;93937.78;;;0.57;68.51
27643;BME280;15053;48.618;10.024;2023-02-26T10:01:34;93939.31;;;0.58;68.68
27643;BME280;15053;48.618;10.024;2023-02-26T10:04:29;93932.25;;;0.82;68.63
27643;BME280;15053;48.618;10.024;2023-02-26T10:09:44;93934.81;;;1.59;67.96
27643;BME280;15053;48.618;10.024;2023-02-26T10:12:22;93926.44;;;1.68;68.37
27643;BME280;15053;48.618;10.024;2023-02-26T10:17:29;93931.75;;;1.84;66.66
27643;BME280;15053;48.618;10.024;2023-02-26T10:20:08;93935.56;;;1.81;66.35
27643;BME280;15053;48.618;10.024;2023-02-26T10:22:42;93935.56;;;1.81;65.67
27643;BME280;15053;48.618;10.024;2023-02-26T10:25:20;93938.63;;;1.78;66.36
27643;BME280;15053;48.618;10.024;2023-02-26T10:28:34;93936.00;;;1.73;66.04
27643;BME280;15053;48.618;10.024;2023-02-26T10:30:45;93940.31;;;1.67;65.70
27643;BME280;15053;48.618;10.024;2023-02-26T10:36:27;93943.88;;;1.66;66.51
27643;BME280;15053;48.618;10.024;2023-02-26T10:41:51;93942.00;;;2.05;67.15
27643;BME280;15053;48.618;10.024;2023-02-26T10:44:28;93943.81;;;2.36;66.63
27643;BME280;15053;48.618;10.024;2023-02-26T10:47:18;93943.22;;;2.88;65.92
27643;BME280;15053;48.618;10.024;2023-02-26T10:49:54;93941.78;;;3.02;64.30
27643;BME280;15053;48.618;10.024;2023-02-26T10:52:24;93934.94;;;3.18;64.17
27643;BME280;15053;48.618;10.024;2023-02-26T10:55:22;93946.41;;;3.05;63.56
27643;BME280;15053;48.618;10.024;2023-02-26T10:57:58;93945.81;;;2.93;63.72
27643;BME280;15053;48.618;10.024;2023-02-26T11:00:25;93950.38;;;2.86;63.44
27643;BME280;15053;48.618;10.024;2023-02-26T11:02:53;93952.34;;;2.69;63.47
27643;BME280;15053;48.618;10.024;2023-02-26T11:05:24;93945.59;;;2.63;63.50
27643;BME280;15053;48.618;10.024;2023-02-26T11:07:55;93947.06;;;2.54;64.11
27643;BME280;15053;48.618;10.024;2023-02-26T11:10:24;93952.69;;;2.24;64.09
27643;BME280;15053;48.618;10.024;2023-02-26T11:12:52;93953.53;;;2.03;64.70
27643;BME280;15053;48.618;10.024;2023-02-26T11:15:20;93965.94;;;1.89;64.89
27643;BME280;15053;48.618;10.024;2023-02-26T11:17:52;93960.16;;;1.77;65.50
27643;BME280;15053;48.618;10.024;2023-02-26T11:20:42;93954.50;;;1.75;66.00
27643;BME280;15053;48.618;10.024;2023-02-26T11:23:12;93958.13;;;1.79;66.12
27643;BME280;15053;48.618;10.024;2023-02-26T11:25:40;93951.72;;;1.82;66.89
27643;BME280;15053;48.618;10.024;2023-02-26T11:28:28;93963.72;;;1.76;65.83
27643;BME280;15053;48.618;10.024;2023-02-26T11:30:55;93963.09;;;1.64;66.30
27643;BME280;15053;48.618;10.024;2023-02-26T11:33:27;93966.00;;;1.51;66.18
27643;BME280;15053;48.618;10.024;2023-02-26T11:35:56;93970.22;;;1.40;66.68
27643;BME280;15053;48.618;10.024;2023-02-26T11:38:25;93971.47;;;1.38;67.26
27643;BME280;15053;48.618;10.024;2023-02-26T11:40:55;93971.94;;;1.35;66.85
27643;BME280;15053;48.618;10.024;2023-02-26T11:43:24;93975.00;;;1.32;67.23
27643;BME280;15053;48.618;10.024;2023-02-26T11:45:57;93975.31;;;1.18;67.06
27643;BME280;15053;48.618;10.024;2023-02-26T11:48:30;93985.19;;;1.10;68.27
27643;BME280;15053;48.618;10.024;2023-02-26T11:51:00;93975.56;;;1.00;68.17
27643;BME280;15053;48.618;10.024;2023-02-26T11:53:34;93974.19;;;0.93;68.69
27643;BME280;15053;48.618;10.024;2023-02-26T11:56:10;93979.25;;;0.88;68.67
27643;BME280;15053;48.618;10.024;2023-02-26T11:58:39;93986.94;;;0.88;68.89
27643;BME280;15053;48.618;10.024;2023-02-26T12:01:08;93985.38;;;0.87;69.58
27643;BME280;15053;48.618;10.024;2023-02-26T12:03:38;93991.28;;;0.87;69.29
27643;BME280;15053;48.618;10.024;2023-02-26T12:06:26;93983.81;;;0.86;70.15
27643;BME280;15053;48.618;10.024;2023-02-26T12:08:52;93979.53;;;0.91;69.99
27643;BME280;15053;48.618;10.024;2023-02-26T12:17:18;93981.88;;;1.09;69.40
27643;BME280;15053;48.618;10.024;2023-02-26T12:26:04;93978.78;;;1.89;68.82
27643;BME280;15053;48.618;10.024;2023-02-26T12:28:39;93980.16;;;1.75;68.54
27643;BME280;15053;48.618;10.024;2023-02-26T12:36:49;93985.56;;;1.57;68.94
27643;BME280;15053;48.618;10.024;2023-02-26T12:44:57;93983.97;;;1.51;69.97
27643;BME280;15053;48.618;10.024;2023-02-26T12:47:40;93983.88;;;1.46;69.53
27643;BME280;15053;48.618;10.024;2023-02-26T12:59:10;93984.00;;;1.34;71.00
27643;BME280;15053;48.618;10.024;2023-02-26T13:04:50;93987.44;;;1.61;70.64
27643;BME280;15053;48.618;10.024;2023-02-26T13:07:41;93995.66;;;1.63;70.89
27643;BME280;15053;48.618;10.024;2023-02-26T13:16:09;94003.13;;;1.65;71.02
27643;BME280;15053;48.618;10.024;2023-02-26T13:19:05;93995.50;;;1.70;71.14
27643;BME280;15053;48.618;10.024;2023-02-26T13:21:42;93998.72;;;1.82;70.54
27643;BME280;15053;48.618;10.024;2023-02-26T13:26:37;93998.50;;;2.32;70.28
27643;BME280;15053;48.618;10.024;2023-02-26T13:29:10;93999.09;;;2.66;69.22
27643;BME280;15053;48.618;10.024;2023-02-26T13:31:42;93997.34;;;3.08;68.90
27643;BME280;15053;48.618;10.024;2023-02-26T13:34:24;93989.44;;;3.15;66.24
27643;BME280;15053;48.618;10.024;2023-02-26T13:36:51;94001.03;;;3.17;65.38
27643;BME280;15053;48.618;10.024;2023-02-26T13:45:14;93987.13;;;4.17;61.65
27643;BME280;15053;48.618;10.024;2023-02-26T13:50:39;93986.72;;;4.75;58.51
27643;BME280;15053;48.618;10.024;2023-02-26T13:59:04;93984.66;;;4.78;54.61
27643;BME280;15053;48.618;10.024;2023-02-26T14:01:33;93987.66;;;4.29;55.20
27643;BME280;15053;48.618;10.024;2023-02-26T14:06:52;93979.47;;;4.62;55.97
27643;BME280;15053;48.618;10.024;2023-02-26T14:16:52;93993.09;;;5.69;52.67
27643;BME280;15053;48.618;10.024;2023-02-26T14:19:31;93987.59;;;6.01;51.42
27643;BME280;15053;48.618;10.024;2023-02-26T14:22:18;93985.47;;;6.18;49.33
27643;BME280;15053;48.618;10.024;2023-02-26T14:24:52;93992.50;;;6.51;49.71
27643;BME280;15053;48.618;10.024;2023-02-26T14:32:44;93985.22;;;7.31;48.66
27643;BME280;15053;48.618;10.024;2023-02-26T14:35:18;93989.66;;;7.54;46.95
27643;BME280;15053;48.618;10.024;2023-02-26T14:37:55;93987.53;;;7.61;46.65
27643;BME280;15053;48.618;10.024;2023-02-26T14:40:24;94001.34;;;7.51;45.79
27643;BME280;15053;48.618;10.024;2023-02-26T14:42:54;94002.53;;;7.01;47.03
27643;BME280;15053;48.618;10.024;2023-02-26T14:45:26;94008.84;;;6.46;48.31
27643;BME280;15053;48.618;10.024;2023-02-26T14:47:54;94015.28;;;5.75;49.44
27643;BME280;15053;48.618;10.024;2023-02-26T14:50:22;94022.59;;;5.12;50.84
27643;BME280;15053;48.618;10.024;2023-02-26T14:55:49;94025.19;;;4.00;54.90
27643;BME280;15053;48.618;10.024;2023-02-26T14:58:35;94050.44;;;3.56;56.23
27643;BME280;15053;48.618;10.024;2023-02-26T15:01:18;94047.53;;;3.11;58.44
27643;BME280;15053;48.618;10.024;2023-02-26T15:06:53;94061.28;;;2.41;61.36
27643;BME280;15053;48.618;10.024;2023-02-26T15:09:22;94070.50;;;2.15;63.97
27643;BME280;15053;48.618;10.024;2023-02-26T15:12:18;94064.03;;;1.91;64.72
27643;BME280;15053;48.618;10.024;2023-02-26T15:15:10;94058.16;;;1.74;66.41
27643;BME280;15053;48.618;10.024;2023-02-26T15:20:51;94070.28;;;2.65;65.84
27643;BME280;15053;48.618;10.024;2023-02-26T15:23:38;94075.91;;;2.62;65.90
27643;BME280;15053;48.618;10.024;2023-02-26T15:26:07;94062.25;;;2.62;65.86